Time;durP1;ratioP1;P1;durP2;ratioP2;P2;SDS_P1;SDS_P2;PMS_P1;PMS_P2;Temp;Humidity;BMP_temperature;BMP_pressure;BME280_temperature;BME280_humidity;BME280_pressure;Samples;Min_cycle;Max_cycle;Signal;HPM_P1;HPM_P2
2021/11/22 00:05:48;;;;;;;;;;;;;;;17.32;44.88;100469.36;97527;1405;60341;-81
2021/11/22 00:19:01;;;;;;;;;;;;;;;;;;;;;
2021/11/22 00:22:18;;;;;;;;;;;;;;;;;;;;;
2021/11/22 00:26:04;;;;;;;;;;;;;;;17.32;44.90;100470.48;96869;1417;73705;-81
2021/11/22 00:39:43;;;;;;;;;;;;;;;;;;;;;
2021/11/22 00:46:15;;;;;;;;;;;;;;;;;;;;;
2021/11/22 00:49:42;;;;;;;;;;;;;;;;;;;;;
2021/11/22 01:00:00;;;;;;;;;;;;;;;;;;;;;
2021/11/22 01:06:54;;;;;;;;;;;;;;;17.29;44.71;100469.20;96786;1413;59836;-80
2021/11/22 01:10:46;;;;;;;;;;;;;;;17.29;44.68;100467.79;96780;1419;60693;-81
2021/11/22 01:17:03;;;;;;;;;;;;;;;;;;;;;
2021/11/22 01:20:27;;;;;;;;;;;;;;;;;;;;;
2021/11/22 01:26:53;;;;;;;;;;;;;;;;;;;;;
2021/11/22 01:30:10;;;;;;;;;;;;;;;;;;;;;
2021/11/22 01:44:06;;;;;;;;;;;;;;;;;;;;;
2021/11/22 01:47:58;;;;;;;;;;;;;;;17.26;44.66;100453.71;100337;1376;71189;-80
2021/11/22 01:54:18;;;;;;;;;;;;;;;;;;;;;
2021/11/22 01:58:09;;;;;;;;;;;;;;;17.25;44.65;100437.98;94922;1393;5361471;-82
2021/11/22 02:04:35;;;;;;;;;;;;;;;;;;;;;
2021/11/22 02:11:29;;;;;;;;;;;;;;;;;;;;;
2021/11/22 02:21:59;;;;;;;;;;;;;;;;;;;;;
2021/11/22 02:25:14;;;;;;;;;;;;;;;;;;;;;
2021/11/22 02:29:05;;;;;;;;;;;;;;;17.24;44.72;100436.79;98702;1393;73969;-81
2021/11/22 02:32:05;;;;;;;;;;;;;;;;;;;;;
2021/11/22 02:35:57;;;;;;;;;;;;;;;17.24;44.71;100438.56;97537;1411;62614;-81
2021/11/22 02:42:13;;;;;;;;;;;;;;;;;;;;;
2021/11/22 02:51:47;;;;;;;;;;;;;;;;;;;;;
2021/11/22 03:05:58;;;;;;;;;;;;;;;17.21;44.54;100452.09;96560;1423;71687;-81
2021/11/22 03:12:24;;;;;;;;;;;;;;;;;;;;;
2021/11/22 03:19:24;;;;;;;;;;;;;;;;;;;;;
2021/11/22 03:49:58;;;;;;;;;;;;;;;17.20;44.56;100482.93;97369;1411;71300;-81
2021/11/22 03:53:15;;;;;;;;;;;;;;;;;;;;;
2021/11/22 04:00:43;;;;;;;;;;;;;;;17.21;44.51;100492.26;101339;1351;599309;-81
2021/11/22 04:07:00;;;;;;;;;;;;;;;;;;;;;
2021/11/22 04:13:52;;;;;;;;;;;;;;;;;;;;;
2021/11/22 04:17:08;;;;;;;;;;;;;;;17.18;44.59;100503.84;98682;1396;71390;-81
2021/11/22 04:23:58;;;;;;;;;;;;;;;;;;;;;
2021/11/22 04:27:20;;;;;;;;;;;;;;;;;;;;;
2021/11/22 04:30:36;;;;;;;;;;;;;;;;;;;;;
2021/11/22 04:34:04;;;;;;;;;;;;;;;;;;;;;
2021/11/22 04:37:11;;;;;;;;;;;;;;;17.17;44.56;100514.94;96892;1415;61471;-80
2021/11/22 04:40:27;;;;;;;;;;;;;;;;;;;;;
2021/11/22 04:43:45;;;;;;;;;;;;;;;17.16;44.53;100515.67;96932;1415;73858;-81
2021/11/22 04:46:57;;;;;;;;;;;;;;;;;;;;;
2021/11/22 04:56:56;;;;;;;;;;;;;;;;;;;;;
2021/11/22 05:00:11;;;;;;;;;;;;;;;17.12;44.41;100535.17;97463;1406;59983;-81
2021/11/22 05:10:55;;;;;;;;;;;;;;;17.06;44.58;100542.40;97969;1407;72059;-81
2021/11/22 05:20:49;;;;;;;;;;;;;;;16.99;44.60;100553.67;96955;1409;71608;-82
2021/11/22 05:23:55;;;;;;;;;;;;;;;;;;;;;
2021/11/22 05:27:00;;;;;;;;;;;;;;;;;;;;;
2021/11/22 05:30:27;;;;;;;;;;;;;;;16.99;44.27;100576.05;97096;1408;59827;-81
2021/11/22 05:33:23;;;;;;;;;;;;;;;;;;;;;
2021/11/22 05:37:00;;;;;;;;;;;;;;;;;;;;;
2021/11/22 05:40:02;;;;;;;;;;;;;;;17.06;43.82;100592.21;97285;1404;62038;-80
2021/11/22 05:46:09;;;;;;;;;;;;;;;17.11;43.55;100605.27;97373;1403;71675;-80
2021/11/22 05:49:35;;;;;;;;;;;;;;;;;;;;;
2021/11/22 05:52:24;;;;;;;;;;;;;;;17.15;43.22;100615.53;97855;1398;59802;-81
2021/11/22 05:54:59;;;;;;;;;;;;;;;17.17;43.21;100620.54;98863;1392;61874;-81
2021/11/22 05:57:25;;;;;;;;;;;;;;;17.18;43.07;100621.73;99393;1376;74299;-81
2021/11/22 05:59:59;;;;;;;;;;;;;;;17.20;42.96;100625.89;99727;1379;59894;-79
2021/11/22 06:02:48;;;;;;;;;;;;;;;;;;;;;
2021/11/22 06:06:08;;;;;;;;;;;;;;;17.22;42.83;100631.83;98903;1379;59837;-79
2021/11/22 06:08:41;;;;;;;;;;;;;;;17.23;42.64;100637.29;99206;1373;73265;-79
2021/11/22 06:12:21;;;;;;;;;;;;;;;17.24;42.46;100644.38;99266;1379;72869;-79
2021/11/22 06:14:52;;;;;;;;;;;;;;;;;;;;;
2021/11/22 06:17:53;;;;;;;;;;;;;;;;;;;;;
2021/11/22 06:23:48;;;;;;;;;;;;;;;;;;;;;
2021/11/22 06:26:22;;;;;;;;;;;;;;;17.38;41.80;100652.95;99417;1374;60207;-80
2021/11/22 06:28:48;;;;;;;;;;;;;;;17.41;41.70;100654.21;99570;1377;59332;-79
2021/11/22 06:31:16;;;;;;;;;;;;;;;17.42;41.61;100660.39;99618;1379;59789;-80
2021/11/22 06:33:53;;;;;;;;;;;;;;;17.43;41.42;100661.73;99413;1374;74350;-78
2021/11/22 06:37:01;;;;;;;;;;;;;;;17.46;41.30;100665.34;99382;1378;61059;-78
2021/11/22 06:39:50;;;;;;;;;;;;;;;;;;;;;
2021/11/22 06:43:40;;;;;;;;;;;;;;;17.54;41.28;100674.80;99153;1384;71940;-78
2021/11/22 06:46:23;;;;;;;;;;;;;;;17.59;41.10;100683.57;98975;1380;73255;-79
2021/11/22 06:49:51;;;;;;;;;;;;;;;17.64;40.98;100676.90;99686;1368;60058;-79
2021/11/22 06:52:39;;;;;;;;;;;;;;;;;;;;;
2021/11/22 06:55:11;;;;;;;;;;;;;;;17.70;40.71;100685.14;100298;1366;72600;-80
2021/11/22 06:57:56;;;;;;;;;;;;;;;;;;;;;
2021/11/22 07:00:32;;;;;;;;;;;;;;;17.64;40.94;100704.13;100627;1361;59990;-79
2021/11/22 07:03:43;;;;;;;;;;;;;;;17.62;41.02;100699.25;101060;1354;59873;-78
2021/11/22 07:06:11;;;;;;;;;;;;;;;17.54;40.90;100702.77;101053;1355;73157;-78
2021/11/22 07:08:59;;;;;;;;;;;;;;;;;;;;;
2021/11/22 07:11:34;;;;;;;;;;;;;;;;;;;;;
2021/11/22 07:14:40;;;;;;;;;;;;;;;17.49;41.14;100713.01;102069;1356;60657;-79
2021/11/22 07:17:05;;;;;;;;;;;;;;;17.51;41.18;100714.86;102011;1360;72286;-79
2021/11/22 07:19:59;;;;;;;;;;;;;;;17.53;41.25;100717.06;101246;1353;59757;-80
2021/11/22 07:23:06;;;;;;;;;;;;;;;;;;;;;
2021/11/22 07:25:40;;;;;;;;;;;;;;;17.56;41.21;100719.02;101590;1348;60359;-80
2021/11/22 07:28:29;;;;;;;;;;;;;;;17.55;41.27;100718.16;101761;1348;70467;-80
2021/11/22 07:31:02;;;;;;;;;;;;;;;17.55;41.22;100716.21;102690;1353;73077;-80
2021/11/22 07:33:28;;;;;;;;;;;;;;;17.55;41.20;100719.23;102755;1351;60281;-80
2021/11/22 07:35:53;;;;;;;;;;;;;;;17.55;41.20;100718.16;102738;1350;58026;-80
2021/11/22 07:38:19;;;;;;;;;;;;;;;17.57;41.15;100719.67;102547;1355;57856;-80
2021/11/22 07:40:47;;;;;;;;;;;;;;;17.60;41.21;100723.21;101592;1351;59716;-79
2021/11/22 07:43:21;;;;;;;;;;;;;;;17.64;41.04;100721.06;102716;1348;59982;-80
2021/11/22 07:45:46;;;;;;;;;;;;;;;17.68;41.04;100722.27;102760;1351;57515;-80
2021/11/22 07:48:15;;;;;;;;;;;;;;;17.73;41.10;100726.40;101947;1348;59694;-79
2021/11/22 07:50:46;;;;;;;;;;;;;;;17.77;41.01;100727.81;101783;1348;74183;-79
2021/11/22 07:53:20;;;;;;;;;;;;;;;17.80;40.97;100731.17;101405;1351;61272;-78
2021/11/22 07:55:48;;;;;;;;;;;;;;;17.80;40.82;100736.16;101448;1349;61376;-79
2021/11/22 07:58:37;;;;;;;;;;;;;;;17.74;40.70;100734.89;101528;1354;72780;-79
2021/11/22 08:01:06;;;;;;;;;;;;;;;17.67;40.63;100737.23;101352;1348;75226;-79
2021/11/22 08:06:46;;;;;;;;;;;;;;;17.64;40.75;100745.26;101369;1354;62397;-79
2021/11/22 08:15:14;;;;;;;;;;;;;;;;;;;;;
2021/11/22 08:18:18;;;;;;;;;;;;;;;17.69;40.76;100763.10;100719;1362;61562;-80
2021/11/22 08:21:37;;;;;;;;;;;;;;;;;;;;;
2021/11/22 08:24:54;;;;;;;;;;;;;;;17.69;40.48;100764.22;99710;1371;75009;-79
2021/11/22 08:27:45;;;;;;;;;;;;;;;17.67;40.54;100766.27;99264;1382;62423;-79
2021/11/22 08:30:52;;;;;;;;;;;;;;;;;;;;;
2021/11/22 08:34:30;;;;;;;;;;;;;;;;;;;;;
2021/11/22 08:37:05;;;;;;;;;;;;;;;;;;;;;
2021/11/22 08:43:28;;;;;;;;;;;;;;;;;;;;;
2021/11/22 08:46:16;;;;;;;;;;;;;;;17.67;40.21;100769.48;100298;1371;72175;-79
2021/11/22 08:49:03;;;;;;;;;;;;;;;17.66;40.24;100768.66;99915;1371;73293;-78
2021/11/22 08:51:49;;;;;;;;;;;;;;;17.65;40.17;100761.56;99826;1371;60148;-79
2021/11/22 08:54:22;;;;;;;;;;;;;;;17.54;39.99;100760.20;99471;1371;60874;-79
2021/11/22 08:56:57;;;;;;;;;;;;;;;17.30;40.12;100758.34;99360;1371;73143;-80
2021/11/22 08:59:36;;;;;;;;;;;;;;;17.15;40.40;100753.55;99988;1372;74371;-81
2021/11/22 09:02:10;;;;;;;;;;;;;;;17.06;40.32;100757.60;99948;1364;60670;-81
2021/11/22 09:05:06;;;;;;;;;;;;;;;;;;;;;
2021/11/22 09:07:40;;;;;;;;;;;;;;;16.74;40.67;100754.95;101928;1354;71818;-79
2021/11/22 09:10:06;;;;;;;;;;;;;;;16.81;40.81;100755.30;102035;1358;58882;-78
2021/11/22 09:12:32;;;;;;;;;;;;;;;16.90;40.87;100755.39;102143;1355;58813;-79
2021/11/22 09:15:01;;;;;;;;;;;;;;;16.98;40.86;100752.32;102079;1357;58476;-78
2021/11/22 09:17:27;;;;;;;;;;;;;;;17.05;40.83;100752.27;101997;1359;72168;-79
2021/11/22 09:19:52;;;;;;;;;;;;;;;17.12;40.82;100749.22;102138;1360;58860;-78
2021/11/22 09:22:18;;;;;;;;;;;;;;;17.18;40.81;100748.89;102179;1354;59308;-78
2021/11/22 09:24:44;;;;;;;;;;;;;;;17.24;40.73;100749.61;102156;1360;58505;-79
2021/11/22 09:27:21;;;;;;;;;;;;;;;17.30;40.80;100750.89;102064;1354;58511;-78
2021/11/22 09:29:47;;;;;;;;;;;;;;;17.35;40.71;100747.77;102127;1358;73644;-79
2021/11/22 09:32:12;;;;;;;;;;;;;;;17.40;40.74;100749.81;102510;1348;58488;-79
2021/11/22 09:34:38;;;;;;;;;;;;;;;17.45;40.66;100741.88;102825;1348;58510;-80
2021/11/22 09:37:03;;;;;;;;;;;;;;;17.51;40.56;100733.35;102619;1354;58683;-79
2021/11/22 09:39:29;;;;;;;;;;;;;;;17.55;40.61;100726.16;102848;1352;58402;-79
2021/11/22 09:42:03;;;;;;;;;;;;;;;17.62;40.57;100726.14;101791;1352;75036;-79
2021/11/22 09:44:52;;;;;;;;;;;;;;;17.68;40.55;100725.42;101549;1353;60578;-79
2021/11/22 09:47:38;;;;;;;;;;;;;;;;;;;;;
2021/11/22 09:50:24;;;;;;;;;;;;;;;17.81;40.40;100732.17;101746;1354;73763;-80
2021/11/22 09:53:00;;;;;;;;;;;;;;;17.85;40.38;100734.59;101404;1348;74344;-81
2021/11/22 09:55:50;;;;;;;;;;;;;;;17.77;40.27;100729.90;101720;1348;60482;-79
2021/11/22 09:58:34;;;;;;;;;;;;;;;17.47;40.12;100733.03;102588;1348;61635;-79
2021/11/22 10:01:05;;;;;;;;;;;;;;;17.38;40.37;100728.92;102526;1352;72805;-80
2021/11/22 10:03:38;;;;;;;;;;;;;;;17.32;40.28;100728.71;102647;1347;74061;-80
2021/11/22 10:06:03;;;;;;;;;;;;;;;17.29;40.48;100723.95;102514;1351;59781;-79
2021/11/22 10:08:40;;;;;;;;;;;;;;;17.33;40.52;100722.62;102616;1349;58639;-79
2021/11/22 10:11:08;;;;;;;;;;;;;;;17.39;40.54;100721.97;102758;1348;72520;-79
2021/11/22 10:13:38;;;;;;;;;;;;;;;17.45;40.52;100725.89;101739;1354;74063;-79
2021/11/22 10:16:11;;;;;;;;;;;;;;;17.50;40.56;100718.83;102738;1348;60305;-80
2021/11/22 10:18:55;;;;;;;;;;;;;;;17.55;40.46;100720.66;101688;1351;61639;-79
2021/11/22 10:21:34;;;;;;;;;;;;;;;17.60;40.45;100724.13;101847;1347;72916;-79
2021/11/22 10:24:10;;;;;;;;;;;;;;;17.64;40.35;100717.87;101640;1351;74088;-79
2021/11/22 10:26:46;;;;;;;;;;;;;;;17.66;40.35;100716.64;102377;1348;61245;-79
2021/11/22 10:29:54;;;;;;;;;;;;;;;;;;;;;
2021/11/22 10:32:57;;;;;;;;;;;;;;;17.70;40.24;100714.09;101554;1348;73844;-78
2021/11/22 10:35:54;;;;;;;;;;;;;;;;;;;;;
2021/11/22 10:42:26;;;;;;;;;;;;;;;17.78;40.24;100713.83;101241;1360;60843;-79
2021/11/22 10:45:25;;;;;;;;;;;;;;;;;;;;;
2021/11/22 10:48:46;;;;;;;;;;;;;;;;;;;;;
2021/11/22 10:51:39;;;;;;;;;;;;;;;;;;;;;
2021/11/22 10:54:16;;;;;;;;;;;;;;;17.85;40.13;100702.36;101337;1358;60565;-79
2021/11/22 10:56:58;;;;;;;;;;;;;;;;;;;;;
2021/11/22 10:59:35;;;;;;;;;;;;;;;17.70;40.16;100706.09;100839;1357;74062;-79
2021/11/22 11:02:10;;;;;;;;;;;;;;;17.67;40.16;100701.84;102100;1359;59991;-79
2021/11/22 11:04:41;;;;;;;;;;;;;;;17.66;40.42;100694.62;101850;1358;58946;-80
2021/11/22 11:07:07;;;;;;;;;;;;;;;17.68;40.35;100694.85;102063;1355;72727;-79
2021/11/22 11:09:58;;;;;;;;;;;;;;;17.72;40.56;100696.01;101250;1354;60765;-79
2021/11/22 11:16:49;;;;;;;;;;;;;;;17.85;40.60;100692.42;100803;1352;60856;-79
2021/11/22 11:19:26;;;;;;;;;;;;;;;17.89;40.53;100685.59;101199;1357;72713;-79
2021/11/22 11:22:29;;;;;;;;;;;;;;;17.94;40.51;100689.96;101272;1355;74259;-80
2021/11/22 11:24:57;;;;;;;;;;;;;;;17.97;40.53;100690.17;101274;1356;60429;-80
2021/11/22 11:28:19;;;;;;;;;;;;;;;18.01;40.43;100683.11;100871;1360;60422;-80
2021/11/22 11:31:22;;;;;;;;;;;;;;;18.02;40.49;100685.70;100996;1358;72910;-80
2021/11/22 11:34:11;;;;;;;;;;;;;;;18.05;40.57;100684.15;100775;1365;74963;-80
2021/11/22 11:37:30;;;;;;;;;;;;;;;18.08;40.49;100679.29;100761;1358;59331;-82
2021/11/22 11:40:17;;;;;;;;;;;;;;;18.08;40.39;100679.32;101970;1363;60674;-80
2021/11/22 11:43:03;;;;;;;;;;;;;;;18.07;40.39;100682.92;101837;1361;73846;-80
2021/11/22 11:45:49;;;;;;;;;;;;;;;;;;;;;
2021/11/22 11:48:50;;;;;;;;;;;;;;;18.11;40.25;100682.17;100650;1357;61503;-79
2021/11/22 11:51:21;;;;;;;;;;;;;;;18.13;40.33;100679.91;100574;1361;62210;-79
2021/11/22 11:54:03;;;;;;;;;;;;;;;18.18;40.29;100681.60;101422;1365;73772;-79
2021/11/22 11:56:32;;;;;;;;;;;;;;;18.17;40.21;100675.96;101149;1363;74122;-80
2021/11/22 11:59:27;;;;;;;;;;;;;;;18.13;40.24;100679.59;100740;1366;61564;-79
2021/11/22 12:02:11;;;;;;;;;;;;;;;18.08;40.22;100675.04;101179;1363;60638;-79
2021/11/22 12:04:46;;;;;;;;;;;;;;;18.08;40.44;100678.08;101401;1367;72776;-79
2021/11/22 12:07:39;;;;;;;;;;;;;;;18.09;40.39;100681.40;101981;1355;74218;-80
2021/11/22 12:10:18;;;;;;;;;;;;;;;18.12;40.38;100683.72;101798;1357;60279;-80
2021/11/22 12:12:52;;;;;;;;;;;;;;;18.12;40.36;100680.17;101612;1357;324796;-79
2021/11/22 12:15:26;;;;;;;;;;;;;;;18.10;40.46;100679.55;102108;1360;72943;-79
2021/11/22 12:17:56;;;;;;;;;;;;;;;18.11;40.43;100680.79;102167;1359;74010;-80
2021/11/22 12:20:24;;;;;;;;;;;;;;;18.09;40.45;100679.64;102165;1360;60331;-80
2021/11/22 12:22:56;;;;;;;;;;;;;;;18.08;40.43;100678.95;101018;1359;60967;-79
2021/11/22 12:25:43;;;;;;;;;;;;;;;18.05;40.32;100678.99;100732;1360;71523;-79
2021/11/22 12:28:13;;;;;;;;;;;;;;;17.99;40.17;100682.70;100796;1360;73971;-81
2021/11/22 12:30:42;;;;;;;;;;;;;;;17.99;40.36;100684.70;100861;1357;60480;-79
2021/11/22 12:33:40;;;;;;;;;;;;;;;18.01;40.36;100686.18;100845;1360;62238;-79
2021/11/22 12:36:45;;;;;;;;;;;;;;;18.03;40.40;100688.36;100976;1356;74117;-79
2021/11/22 12:40:12;;;;;;;;;;;;;;;18.07;40.47;100688.66;101308;1357;72998;-79
2021/11/22 12:43:13;;;;;;;;;;;;;;;;;;;;;
2021/11/22 12:46:20;;;;;;;;;;;;;;;18.10;40.42;100689.52;100867;1359;59820;-79
2021/11/22 12:50:10;;;;;;;;;;;;;;;18.09;40.35;100691.39;100148;1365;72821;-80
2021/11/22 12:53:02;;;;;;;;;;;;;;;;;;;;;
2021/11/22 12:55:48;;;;;;;;;;;;;;;18.04;40.13;100694.36;99774;1383;58994;-80
2021/11/22 12:58:51;;;;;;;;;;;;;;;;;;;;;
2021/11/22 13:01:58;;;;;;;;;;;;;;;;;;;;;
2021/11/22 13:04:47;;;;;;;;;;;;;;;17.82;40.52;100694.35;100442;1379;71880;-80
2021/11/22 13:07:32;;;;;;;;;;;;;;;17.87;40.69;100689.98;100605;1375;61492;-80
2021/11/22 13:10:39;;;;;;;;;;;;;;;17.95;40.82;100689.52;100654;1371;59609;-80
2021/11/22 13:15:59;;;;;;;;;;;;;;;18.10;41.05;100687.05;100354;1377;75260;-79
2021/11/22 13:18:34;;;;;;;;;;;;;;;18.16;41.19;100694.86;100428;1377;61280;-80
2021/11/22 13:21:11;;;;;;;;;;;;;;;18.21;41.15;100698.47;100241;1365;60845;-80
2021/11/22 13:24:02;;;;;;;;;;;;;;;18.19;41.01;100699.32;101480;1368;73008;-80
2021/11/22 13:26:31;;;;;;;;;;;;;;;18.17;40.91;100698.39;101433;1366;74199;-81
2021/11/22 13:30:08;;;;;;;;;;;;;;;;;;;;;
2021/11/22 13:37:07;;;;;;;;;;;;;;;;;;;;;
2021/11/22 13:43:39;;;;;;;;;;;;;;;;;;;;;
2021/11/22 13:46:33;;;;;;;;;;;;;;;;;;;;;
2021/11/22 13:49:50;;;;;;;;;;;;;;;;;;;;;
2021/11/22 13:56:28;;;;;;;;;;;;;;;18.07;40.18;100709.66;97347;1407;60628;-79
2021/11/22 13:59:47;;;;;;;;;;;;;;;;;;;;;
2021/11/22 14:02:53;;;;;;;;;;;;;;;;;;;;;
2021/11/22 14:06:12;;;;;;;;;;;;;;;18.18;40.06;100710.09;96537;1421;74343;-80
2021/11/22 14:09:03;;;;;;;;;;;;;;;;;;;;;
2021/11/22 14:12:23;;;;;;;;;;;;;;;;;;;;;
2021/11/22 14:15:29;;;;;;;;;;;;;;;;;;;;;
2021/11/22 14:18:10;;;;;;;;;;;;;;;18.38;40.11;100723.30;97910;1409;74080;-79
2021/11/22 14:20:46;;;;;;;;;;;;;;;18.41;39.97;100720.96;98560;1404;60728;-79
2021/11/22 14:23:42;;;;;;;;;;;;;;;;;;;;;
2021/11/22 14:26:37;;;;;;;;;;;;;;;;;;;;;
2021/11/22 14:29:28;;;;;;;;;;;;;;;18.51;39.80;100721.08;100033;1384;73183;-79
2021/11/22 14:32:30;;;;;;;;;;;;;;;;;;;;;
2021/11/22 14:35:28;;;;;;;;;;;;;;;18.57;39.71;100723.55;100001;1369;61659;-79
2021/11/22 14:38:23;;;;;;;;;;;;;;;;;;;;;
2021/11/22 14:41:46;;;;;;;;;;;;;;;18.63;39.75;100726.95;100959;1360;72808;-79
2021/11/22 14:45:07;;;;;;;;;;;;;;;;;;;;;
2021/11/22 14:48:03;;;;;;;;;;;;;;;;;;;;;
2021/11/22 14:51:41;;;;;;;;;;;;;;;18.69;39.88;100726.60;99012;1387;72186;-81
2021/11/22 14:54:46;;;;;;;;;;;;;;;;;;;;;
2021/11/22 14:58:20;;;;;;;;;;;;;;;18.72;40.02;100732.83;99077;1389;60567;-81
2021/11/22 15:01:47;;;;;;;;;;;;;;;18.73;40.11;100736.11;98818;1393;60477;-82
2021/11/22 15:04:44;;;;;;;;;;;;;;;;;;;;;
2021/11/22 15:08:00;;;;;;;;;;;;;;;;;;;;;
2021/11/22 15:11:49;;;;;;;;;;;;;;;;;;;;;
2021/11/22 15:14:57;;;;;;;;;;;;;;;;;;;;;
2021/11/22 15:21:39;;;;;;;;;;;;;;;18.79;40.68;100751.08;97893;1400;72731;-82
2021/11/22 15:24:38;;;;;;;;;;;;;;;;;;;;;
2021/11/22 15:28:40;;;;;;;;;;;;;;;18.81;40.93;100756.52;98409;1400;60997;-82
2021/11/22 15:35:30;;;;;;;;;;;;;;;18.82;41.11;100758.44;98384;1400;72808;-81
2021/11/22 15:38:21;;;;;;;;;;;;;;;;;;;;;
2021/11/22 15:41:48;;;;;;;;;;;;;;;;;;;;;
2021/11/22 15:45:08;;;;;;;;;;;;;;;;;;;;;
2021/11/22 15:48:36;;;;;;;;;;;;;;;18.84;41.38;100764.70;97698;1407;72761;-80
2021/11/22 15:55:11;;;;;;;;;;;;;;;18.85;41.42;100760.86;96959;1416;60759;-81
2021/11/22 15:59:00;;;;;;;;;;;;;;;18.85;41.51;100766.02;97269;1410;72846;-82
2021/11/22 16:01:54;;;;;;;;;;;;;;;;;;;;;
2021/11/22 16:04:42;;;;;;;;;;;;;;;;;;;;;
2021/11/22 16:08:23;;;;;;;;;;;;;;;18.86;41.64;100769.36;98073;1399;60476;-82
2021/11/22 16:11:35;;;;;;;;;;;;;;;;;;;;;
2021/11/22 16:14:57;;;;;;;;;;;;;;;18.88;41.73;100776.40;97970;1396;75675;-81
2021/11/22 16:17:56;;;;;;;;;;;;;;;;;;;;;
2021/11/22 16:21:47;;;;;;;;;;;;;;;18.90;41.83;100779.16;98500;1395;61556;-82
2021/11/22 16:25:13;;;;;;;;;;;;;;;18.91;41.81;100779.64;98512;1398;74280;-82
2021/11/22 16:28:04;;;;;;;;;;;;;;;;;;;;;
2021/11/22 16:31:14;;;;;;;;;;;;;;;18.92;41.91;100781.35;98954;1383;61333;-82
2021/11/22 16:34:37;;;;;;;;;;;;;;;18.92;41.94;100785.07;99250;1380;60574;-82
2021/11/22 16:38:11;;;;;;;;;;;;;;;18.92;42.01;100785.41;99297;1386;73221;-82
2021/11/22 16:40:42;;;;;;;;;;;;;;;18.93;42.00;100777.88;99947;1378;72962;-82
2021/11/22 16:50:43;;;;;;;;;;;;;;;;;;;;;
2021/11/22 16:54:17;;;;;;;;;;;;;;;18.96;42.16;100782.15;99736;1378;75753;-82
2021/11/22 17:00:34;;;;;;;;;;;;;;;;;;;;;
2021/11/22 17:04:26;;;;;;;;;;;;;;;18.99;42.18;100787.38;99689;1381;71604;-80
2021/11/22 17:07:53;;;;;;;;;;;;;;;18.99;42.20;100788.96;99411;1384;72845;-81
2021/11/22 17:10:51;;;;;;;;;;;;;;;;;;;;;
2021/11/22 17:14:43;;;;;;;;;;;;;;;19.00;42.31;100796.38;99283;1385;60514;-82
2021/11/22 17:21:22;;;;;;;;;;;;;;;;;;;;;
2021/11/22 17:24:29;;;;;;;;;;;;;;;;;;;;;
2021/11/22 17:28:00;;;;;;;;;;;;;;;19.03;42.15;100806.54;97473;1410;60504;-82
2021/11/22 17:31:26;;;;;;;;;;;;;;;19.03;42.25;100805.98;96908;1407;74416;-82
2021/11/22 17:34:17;;;;;;;;;;;;;;;;;;;;;
2021/11/22 17:37:46;;;;;;;;;;;;;;;;;;;;;
2021/11/22 17:41:20;;;;;;;;;;;;;;;19.05;42.29;100811.78;96770;1419;60729;-81
2021/11/22 17:44:24;;;;;;;;;;;;;;;;;;;;;
2021/11/22 17:51:06;;;;;;;;;;;;;;;19.07;42.30;100811.81;97029;1414;60629;-82
2021/11/22 17:54:04;;;;;;;;;;;;;;;19.07;42.33;100812.14;97299;1407;61363;-81
2021/11/22 18:00:55;;;;;;;;;;;;;;;;;;;;;
2021/11/22 18:04:15;;;;;;;;;;;;;;;;;;;;;
2021/11/22 18:07:42;;;;;;;;;;;;;;;19.09;42.33;100822.55;98599;1397;60587;-82
2021/11/22 18:11:00;;;;;;;;;;;;;;;;;;;;;
2021/11/22 18:18:05;;;;;;;;;;;;;;;19.12;42.35;100823.66;98634;1391;60579;-82
2021/11/22 18:21:07;;;;;;;;;;;;;;;19.12;42.40;100823.80;98744;1392;60605;-82
2021/11/22 18:24:13;;;;;;;;;;;;;;;19.13;42.43;100823.92;99097;1387;73985;-82
2021/11/22 18:27:28;;;;;;;;;;;;;;;;;;;;;
2021/11/22 18:30:45;;;;;;;;;;;;;;;;;;;;;
2021/11/22 18:34:20;;;;;;;;;;;;;;;19.14;42.33;100821.04;99319;1385;61915;-82
2021/11/22 18:37:17;;;;;;;;;;;;;;;;;;;;;
2021/11/22 18:41:08;;;;;;;;;;;;;;;19.15;42.36;100822.20;98692;1392;71806;-82
2021/11/22 18:43:59;;;;;;;;;;;;;;;19.15;42.24;100823.45;98682;1396;60520;-81
2021/11/22 18:47:25;;;;;;;;;;;;;;;;;;;;;
2021/11/22 18:50:24;;;;;;;;;;;;;;;19.16;42.37;100825.71;98002;1406;72970;-81
2021/11/22 18:57:18;;;;;;;;;;;;;;;19.17;42.35;100835.63;98277;1398;59475;-81
2021/11/22 19:00:22;;;;;;;;;;;;;;;;;;;;;
2021/11/22 19:03:26;;;;;;;;;;;;;;;;;;;;;
2021/11/22 19:07:25;;;;;;;;;;;;;;;19.19;42.34;100841.92;98708;1392;72669;-81
2021/11/22 19:10:41;;;;;;;;;;;;;;;19.19;42.32;100842.80;98642;1393;61564;-81
2021/11/22 19:13:32;;;;;;;;;;;;;;;;;;;;;
2021/11/22 19:20:28;;;;;;;;;;;;;;;19.21;42.30;100842.36;99065;1393;72689;-81
2021/11/22 19:24:11;;;;;;;;;;;;;;;19.21;42.34;100849.29;99056;1387;61854;-82
2021/11/22 19:27:28;;;;;;;;;;;;;;;19.22;42.33;100851.92;99108;1390;60479;-82
2021/11/22 19:30:51;;;;;;;;;;;;;;;19.22;42.32;100858.86;99246;1381;73686;-82
2021/11/22 19:33:55;;;;;;;;;;;;;;;;;;;;;
2021/11/22 19:37:19;;;;;;;;;;;;;;;;;;;;;
2021/11/22 19:40:31;;;;;;;;;;;;;;;19.23;42.29;100859.10;98403;1397;60602;-81
2021/11/22 19:47:06;;;;;;;;;;;;;;;19.25;42.29;100867.05;97535;1409;74128;-81
2021/11/22 19:50:32;;;;;;;;;;;;;;;19.26;42.31;100871.63;97121;1408;60673;-81
2021/11/22 19:53:03;;;;;;;;;;;;;;;19.26;42.28;100871.96;97169;1416;60723;-81
2021/11/22 19:55:35;;;;;;;;;;;;;;;19.27;42.28;100871.58;97140;1412;73191;-81
2021/11/22 20:01:59;;;;;;;;;;;;;;;19.27;42.22;100872.11;96849;1413;60495;-82
2021/11/22 20:05:17;;;;;;;;;;;;;;;;;;;;;
2021/11/22 20:08:21;;;;;;;;;;;;;;;;;;;;;
2021/11/22 20:11:47;;;;;;;;;;;;;;;;;;;;;
2021/11/22 20:15:07;;;;;;;;;;;;;;;;;;;;;
2021/11/22 20:18:14;;;;;;;;;;;;;;;19.29;42.19;100872.36;96783;1416;60666;-82
2021/11/22 20:21:10;;;;;;;;;;;;;;;;;;;;;
2021/11/22 20:24:37;;;;;;;;;;;;;;;19.30;42.20;100871.77;97196;1411;72926;-81
2021/11/22 20:27:41;;;;;;;;;;;;;;;;;;;;;
2021/11/22 20:37:23;;;;;;;;;;;;;;;19.32;42.32;100873.07;98191;1398;74196;-81
2021/11/22 20:40:21;;;;;;;;;;;;;;;19.32;42.26;100877.67;98479;1391;60753;-81
2021/11/22 20:43:19;;;;;;;;;;;;;;;;;;;;;
2021/11/22 20:46:11;;;;;;;;;;;;;;;19.34;42.22;100882.23;98548;1401;72807;-81
2021/11/22 20:49:13;;;;;;;;;;;;;;;;;;;;;
2021/11/22 20:52:13;;;;;;;;;;;;;;;;;;;;;
2021/11/22 20:55:23;;;;;;;;;;;;;;;19.35;42.15;100887.16;98112;1402;61122;-81
2021/11/22 20:58:19;;;;;;;;;;;;;;;;;;;;;
2021/11/22 21:01:48;;;;;;;;;;;;;;;19.35;42.17;100880.52;98270;1396;72835;-82
2021/11/22 21:04:33;;;;;;;;;;;;;;;19.35;42.08;100881.94;98666;1397;60482;-82
2021/11/22 21:11:15;;;;;;;;;;;;;;;;;;;;;
2021/11/22 21:14:21;;;;;;;;;;;;;;;19.36;42.15;100887.08;98330;1403;72834;-81
2021/11/22 21:17:47;;;;;;;;;;;;;;;19.37;42.05;100885.98;98339;1396;60765;-82
2021/11/22 21:21:04;;;;;;;;;;;;;;;;;;;;;
2021/11/22 21:24:09;;;;;;;;;;;;;;;;;;;;;
2021/11/22 21:31:12;;;;;;;;;;;;;;;19.39;42.03;100886.20;99053;1386;60564;-81
2021/11/22 21:34:05;;;;;;;;;;;;;;;19.39;42.10;100890.30;99530;1382;61063;-82
2021/11/22 21:37:01;;;;;;;;;;;;;;;;;;;;;
2021/11/22 21:40:23;;;;;;;;;;;;;;;19.41;41.96;100889.65;99564;1384;72845;-82
2021/11/22 21:43:56;;;;;;;;;;;;;;;19.40;42.00;100888.25;99275;1388;61317;-82
2021/11/22 21:46:31;;;;;;;;;;;;;;;;;;;;;
2021/11/22 21:50:01;;;;;;;;;;;;;;;19.41;41.99;100887.46;98962;1387;73166;-83
2021/11/22 21:53:04;;;;;;;;;;;;;;;;;;;;;
2021/11/22 21:56:30;;;;;;;;;;;;;;;19.41;41.94;100878.00;98718;1389;60448;-82
2021/11/22 22:03:01;;;;;;;;;;;;;;;;;;;;;
2021/11/22 22:06:01;;;;;;;;;;;;;;;;;;;;;
2021/11/22 22:09:04;;;;;;;;;;;;;;;;;;;;;
2021/11/22 22:12:23;;;;;;;;;;;;;;;;;;;;;
2021/11/22 22:16:21;;;;;;;;;;;;;;;19.45;41.91;100916.36;98308;1404;73906;-81
2021/11/22 22:19:47;;;;;;;;;;;;;;;19.45;41.87;100915.27;98583;1392;75106;-81
2021/11/22 22:25:55;;;;;;;;;;;;;;;;;;;;;
2021/11/22 22:29:01;;;;;;;;;;;;;;;;;;;;;
2021/11/22 22:31:51;;;;;;;;;;;;;;;19.47;41.83;100906.91;99243;1380;74479;-81
2021/11/22 22:35:02;;;;;;;;;;;;;;;19.48;41.80;100909.55;99712;1382;60665;-81
2021/11/22 22:38:21;;;;;;;;;;;;;;;;;;;;;
2021/11/22 22:41:29;;;;;;;;;;;;;;;;;;;;;
2021/11/22 22:45:21;;;;;;;;;;;;;;;19.49;41.80;100898.78;99593;1381;72747;-81
2021/11/22 22:55:21;;;;;;;;;;;;;;;19.50;41.72;100897.41;99294;1384;74342;-82
2021/11/22 22:58:48;;;;;;;;;;;;;;;19.51;41.76;100899.16;98802;1389;73008;-82
2021/11/22 23:01:23;;;;;;;;;;;;;;;;;;;;;
2021/11/22 23:05:22;;;;;;;;;;;;;;;19.51;41.58;100893.61;98704;1392;61334;-81
2021/11/22 23:08:24;;;;;;;;;;;;;;;19.52;41.59;100896.59;98435;1394;72206;-81
2021/11/22 23:11:32;;;;;;;;;;;;;;;;;;;;;
2021/11/22 23:14:57;;;;;;;;;;;;;;;;;;;;;
2021/11/22 23:18:15;;;;;;;;;;;;;;;;;;;;;
2021/11/22 23:22:15;;;;;;;;;;;;;;;19.54;41.59;100904.89;98764;1390;74419;-81
2021/11/22 23:24:56;;;;;;;;;;;;;;;;;;;;;
2021/11/22 23:28:58;;;;;;;;;;;;;;;19.54;41.58;100911.10;98968;1384;60530;-82
2021/11/22 23:34:34;;;;;;;;;;;;;;;;;;;;;
2021/11/22 23:38:10;;;;;;;;;;;;;;;19.55;41.57;100911.93;99388;1380;74371;-82